createdAt,value
2023-01-23T00:00:24.234Z,60.83
2023-01-23T00:02:53.428Z,61.97
2023-01-23T00:05:22.642Z,66.28
2023-01-23T00:07:51.949Z,72.05
2023-01-23T00:10:21.678Z,67.28
2023-01-23T00:12:51.053Z,68.30
2023-01-23T00:15:20.744Z,83.20
2023-01-23T00:17:50.679Z,99.50
2023-01-23T00:20:20.250Z,75.43
2023-01-23T00:22:49.647Z,73.65
2023-01-23T00:25:18.925Z,71.28
2023-01-23T00:27:48.093Z,69.28
2023-01-23T00:30:18.657Z,75.22
2023-01-23T00:32:48.011Z,70.85
2023-01-23T00:35:17.305Z,69.60
2023-01-23T00:37:46.619Z,73.20
2023-01-23T00:40:16.022Z,93.47
2023-01-23T00:42:45.290Z,89.15
2023-01-23T00:45:14.601Z,75.50
2023-01-23T00:47:43.803Z,68.20
2023-01-23T00:50:13.594Z,69.90
2023-01-23T00:52:42.742Z,63.33
2023-01-23T00:55:12.293Z,64.72
2023-01-23T00:57:41.580Z,60.72
2023-01-23T01:00:11.803Z,60.90
2023-01-23T01:02:41.343Z,62.35
2023-01-23T01:05:11.027Z,58.75
2023-01-23T01:07:46.061Z,57.67
2023-01-23T01:10:16.286Z,57.67
2023-01-23T01:12:45.856Z,58.90
2023-01-23T01:15:16.611Z,57.78
2023-01-23T01:17:46.003Z,58.88
2023-01-23T01:20:16.630Z,57.92
2023-01-23T01:22:45.943Z,60.85
2023-01-23T01:25:15.257Z,57.10
2023-01-23T01:27:44.553Z,58.88
2023-01-23T01:30:15.236Z,58.45
2023-01-23T01:32:45.115Z,57.67
2023-01-23T01:35:14.879Z,62.25
2023-01-23T01:37:44.207Z,58.63
2023-01-23T01:40:22.161Z,56.53
2023-01-23T01:43:04.873Z,59.80
2023-01-23T01:46:22.070Z,61.75
2023-01-23T01:49:09.016Z,62.03
2023-01-23T01:51:43.942Z,60.55
2023-01-23T01:54:42.336Z,62.08
2023-01-23T01:57:40.275Z,62.25
2023-01-23T02:00:19.919Z,64.07
2023-01-23T02:02:59.846Z,66.03
2023-01-23T02:05:56.971Z,65.95
2023-01-23T02:08:47.506Z,71.65
2023-01-23T02:11:19.530Z,69.32
2023-01-23T02:13:48.817Z,70.78
2023-01-23T02:16:24.744Z,70.85
2023-01-23T02:19:12.384Z,72.32
2023-01-23T02:21:46.419Z,78.45
2023-01-23T02:24:41.188Z,76.95
2023-01-23T02:27:10.412Z,79.70
2023-01-23T02:29:46.798Z,76.43
2023-01-23T02:32:16.119Z,71.20
2023-01-23T02:34:45.665Z,69.47
2023-01-23T02:37:15.570Z,66.32
2023-01-23T02:39:44.668Z,69.15
2023-01-23T02:42:15.062Z,69.85
2023-01-23T02:44:45.298Z,70.18
2023-01-23T02:47:14.502Z,68.43
2023-01-23T02:49:44.057Z,63.95
2023-01-23T02:52:13.346Z,58.88
2023-01-23T02:54:42.615Z,54.17
2023-01-23T02:57:11.823Z,51.90
2023-01-23T02:59:59.486Z,51.85
2023-01-23T03:02:28.827Z,53.23
2023-01-23T03:04:58.040Z,51.78
2023-01-23T03:07:27.210Z,54.85
2023-01-23T03:09:56.317Z,49.22
2023-01-23T03:12:25.446Z,47.70
2023-01-23T03:14:55.975Z,49.88
2023-01-23T03:17:25.799Z,48.75
2023-01-23T03:19:55.743Z,53.22
2023-01-23T03:22:25.092Z,51.25
2023-01-23T03:24:54.485Z,48.85
2023-01-23T03:27:23.596Z,47.95
2023-01-23T03:30:11.036Z,51.13
2023-01-23T03:32:40.515Z,54.47
2023-01-23T03:35:11.636Z,48.22
2023-01-23T03:37:40.774Z,48.60
2023-01-23T03:40:44.464Z,48.10
2023-01-23T03:43:13.564Z,45.25
2023-01-23T03:45:42.640Z,45.67
2023-01-23T03:48:11.807Z,46.03
2023-01-23T03:50:40.903Z,47.13
2023-01-23T03:53:10.010Z,44.70
2023-01-23T03:55:39.151Z,42.08
2023-01-23T03:58:08.241Z,40.53
2023-01-23T04:00:37.315Z,40.75
2023-01-23T04:03:06.634Z,39.67
2023-01-23T04:05:36.325Z,40.15
2023-01-23T04:08:06.039Z,36.45
2023-01-23T04:10:45.227Z,38.60
2023-01-23T04:13:14.711Z,36.80
2023-01-23T04:15:44.346Z,34.35
2023-01-23T04:18:13.461Z,34.88
2023-01-23T04:20:42.766Z,34.63
2023-01-23T04:23:11.870Z,36.13
2023-01-23T04:25:40.980Z,36.40
2023-01-23T04:28:10.132Z,35.13
2023-01-23T04:30:39.322Z,34.05
2023-01-23T04:33:09.146Z,32.33
2023-01-23T04:35:38.398Z,27.45
2023-01-23T04:38:07.590Z,27.85
2023-01-23T04:40:36.695Z,27.00
2023-01-23T04:43:05.839Z,27.52
2023-01-23T04:45:34.913Z,27.10
2023-01-23T04:48:03.994Z,25.95
2023-01-23T04:50:34.679Z,26.77
2023-01-23T04:53:05.258Z,24.88
2023-01-23T04:55:35.136Z,26.20
2023-01-23T04:58:04.909Z,26.00
2023-01-23T05:00:34.137Z,24.42
2023-01-23T05:03:03.571Z,22.40
2023-01-23T05:05:34.212Z,20.42
2023-01-23T05:08:03.447Z,23.23
2023-01-23T05:10:32.630Z,21.60
2023-01-23T05:13:01.832Z,22.52
2023-01-23T05:15:31.724Z,21.30
2023-01-23T05:18:01.551Z,20.90
2023-01-23T05:20:30.742Z,20.77
2023-01-23T05:22:59.867Z,18.92
2023-01-23T05:25:30.613Z,17.45
2023-01-23T05:28:00.813Z,18.05
2023-01-23T05:30:29.991Z,17.80
2023-01-23T05:32:59.359Z,16.90
2023-01-23T05:35:28.491Z,16.58
2023-01-23T05:37:57.712Z,14.82
2023-01-23T05:40:27.118Z,16.00
2023-01-23T05:42:56.500Z,13.68
2023-01-23T05:45:25.782Z,12.77
2023-01-23T05:47:56.760Z,13.45
2023-01-23T05:50:26.441Z,15.15
2023-01-23T05:52:55.512Z,13.85
2023-01-23T05:55:24.899Z,12.70
2023-01-23T05:57:54.010Z,12.95
2023-01-23T06:00:23.466Z,11.82
2023-01-23T06:02:52.726Z,11.48
2023-01-23T06:05:22.065Z,11.70
2023-01-23T06:07:51.444Z,11.65
2023-01-23T06:10:20.912Z,11.15
2023-01-23T06:12:50.229Z,10.52
2023-01-23T06:15:20.442Z,10.60
2023-01-23T06:17:52.907Z,10.45
2023-01-23T06:20:22.419Z,11.77
2023-01-23T06:22:51.705Z,12.30
2023-01-23T06:25:22.946Z,11.65
2023-01-23T06:27:54.103Z,12.18
2023-01-23T06:30:24.108Z,12.05
2023-01-23T06:32:53.201Z,12.50
2023-01-23T06:35:22.589Z,10.98
2023-01-23T06:37:51.935Z,13.50
2023-01-23T06:40:21.724Z,12.77
2023-01-23T06:42:52.005Z,13.55
2023-01-23T06:45:21.401Z,15.02
2023-01-23T06:47:52.654Z,14.65
2023-01-23T06:50:22.199Z,13.90
2023-01-23T06:52:51.486Z,15.65
2023-01-23T06:55:21.832Z,14.68
2023-01-23T06:57:50.926Z,16.05
2023-01-23T07:00:20.995Z,15.93
2023-01-23T07:02:50.453Z,16.05
2023-01-23T07:05:19.751Z,15.43
2023-01-23T07:07:48.829Z,14.70
2023-01-23T07:10:18.431Z,15.40
2023-01-23T07:12:47.759Z,15.43
2023-01-23T07:15:17.074Z,15.35
2023-01-23T07:17:46.174Z,16.30
2023-01-23T07:20:16.460Z,16.45
2023-01-23T07:22:46.091Z,14.82
2023-01-23T07:25:15.261Z,14.75
2023-01-23T07:27:44.374Z,14.15
2023-01-23T07:30:14.560Z,15.88
2023-01-23T07:32:43.937Z,13.20
2023-01-23T07:35:13.198Z,15.40
2023-01-23T07:37:42.504Z,14.32
2023-01-23T07:40:12.928Z,13.35
2023-01-23T07:42:42.915Z,14.13
2023-01-23T07:45:12.989Z,15.18
2023-01-23T07:47:44.749Z,14.10
2023-01-23T07:50:15.454Z,13.88
2023-01-23T07:52:44.620Z,13.43
2023-01-23T07:55:13.738Z,13.65
2023-01-23T07:57:43.546Z,12.90
2023-01-23T08:00:13.381Z,13.27
2023-01-23T08:02:42.531Z,13.73
2023-01-23T08:05:11.819Z,13.02
2023-01-23T08:07:41.069Z,12.68
2023-01-23T08:10:11.349Z,13.63
2023-01-23T08:12:40.670Z,13.43
2023-01-23T08:15:10.578Z,13.25
2023-01-23T08:17:39.777Z,12.85
2023-01-23T08:20:10.981Z,12.52
2023-01-23T08:22:41.834Z,12.65
2023-01-23T08:25:12.883Z,15.25
2023-01-23T08:27:42.029Z,12.15
2023-01-23T08:30:12.475Z,13.00
2023-01-23T08:32:41.669Z,11.57
2023-01-23T08:35:11.549Z,11.40
2023-01-23T08:37:42.819Z,11.20
2023-01-23T08:40:12.990Z,11.70
2023-01-23T08:42:42.291Z,12.30
2023-01-23T08:45:12.439Z,11.68
2023-01-23T08:47:41.558Z,12.75
2023-01-23T08:50:12.263Z,12.63
2023-01-23T08:52:41.440Z,12.25
2023-01-23T08:55:13.724Z,13.13
2023-01-23T08:57:42.815Z,12.05
2023-01-23T09:00:13.078Z,11.63
2023-01-23T09:02:42.615Z,13.15
2023-01-23T09:05:11.840Z,12.80
2023-01-23T09:07:41.895Z,12.07
2023-01-23T09:10:13.677Z,12.73
2023-01-23T09:12:43.768Z,13.95
2023-01-23T09:15:13.460Z,13.20
2023-01-23T09:17:42.613Z,12.50
2023-01-23T09:20:13.168Z,11.80
2023-01-23T09:22:42.603Z,11.30
2023-01-23T09:25:13.304Z,11.73
2023-01-23T09:27:42.726Z,12.00
2023-01-23T09:30:13.008Z,11.63
2023-01-23T09:32:42.223Z,11.43
2023-01-23T09:35:11.695Z,11.77
2023-01-23T09:37:59.107Z,11.23
2023-01-23T09:40:42.841Z,12.63
2023-01-23T09:43:25.707Z,11.93
2023-01-23T09:46:27.561Z,11.70
2023-01-23T09:49:42.275Z,12.07
2023-01-23T09:52:31.704Z,13.02
2023-01-23T09:55:26.020Z,13.02
2023-01-23T09:58:04.332Z,12.20
2023-01-23T10:00:37.344Z,11.82
2023-01-23T10:03:17.501Z,14.18
2023-01-23T10:06:27.914Z,14.32
2023-01-23T10:09:05.990Z,13.52
2023-01-23T10:14:48.799Z,14.27
2023-01-23T10:17:49.522Z,12.25
2023-01-23T10:20:50.915Z,13.05
2023-01-23T10:23:26.276Z,12.98
2023-01-23T10:25:55.869Z,14.00
2023-01-23T10:28:39.849Z,14.88
2023-01-23T10:31:32.068Z,13.88
2023-01-23T10:34:11.019Z,13.95
2023-01-23T10:36:55.285Z,13.95
2023-01-23T10:39:51.729Z,16.00
2023-01-23T10:42:26.813Z,15.27
2023-01-23T10:44:56.148Z,16.65
2023-01-23T10:47:38.834Z,15.30
2023-01-23T10:50:10.168Z,15.45
2023-01-23T10:52:46.352Z,15.02
2023-01-23T10:55:21.343Z,15.00
2023-01-23T10:58:04.128Z,14.40
2023-01-23T11:00:46.056Z,14.20
2023-01-23T11:03:24.029Z,18.98
2023-01-23T11:06:02.923Z,14.82
2023-01-23T11:08:41.923Z,13.88
2023-01-23T11:11:16.689Z,15.35
2023-01-23T11:13:49.040Z,13.57
2023-01-23T11:16:24.283Z,14.75
2023-01-23T11:19:09.447Z,14.48
2023-01-23T11:21:53.814Z,14.60
2023-01-23T11:24:43.064Z,15.63
2023-01-23T11:27:28.963Z,15.25
2023-01-23T11:30:42.706Z,16.73
2023-01-23T11:33:23.311Z,16.23
2023-01-23T11:36:16.353Z,14.68
2023-01-23T11:39:35.858Z,15.85
2023-01-23T11:42:05.593Z,16.48
2023-01-23T11:44:45.090Z,30.52
2023-01-23T11:47:26.427Z,34.65
2023-01-23T11:50:13.990Z,31.83
2023-01-23T11:53:21.197Z,32.67
2023-01-23T11:56:33.853Z,23.73
2023-01-23T11:59:53.369Z,21.15
2023-01-23T12:02:46.836Z,18.60
2023-01-23T12:05:50.732Z,18.52
2023-01-23T12:08:52.985Z,19.92
2023-01-23T12:11:26.537Z,19.52
2023-01-23T12:15:04.541Z,18.77
2023-01-23T12:17:46.229Z,19.00
2023-01-23T12:20:34.225Z,19.08
2023-01-23T12:23:37.694Z,17.80
2023-01-23T12:26:17.504Z,17.05
2023-01-23T12:29:26.715Z,17.50
2023-01-23T12:32:45.580Z,15.13
2023-01-23T12:35:26.318Z,16.95
2023-01-23T12:38:26.497Z,14.93
2023-01-23T12:41:10.588Z,15.55
2023-01-23T12:44:02.649Z,16.75
2023-01-23T12:47:21.705Z,16.60
2023-01-23T12:50:02.111Z,15.48
2023-01-23T12:52:50.608Z,14.30
2023-01-23T12:55:32.001Z,15.55
2023-01-23T12:58:09.022Z,15.00
2023-01-23T13:01:06.199Z,15.20
2023-01-23T13:03:46.308Z,15.05
2023-01-23T13:06:40.775Z,15.15
2023-01-23T13:09:30.643Z,14.80
2023-01-23T13:12:23.369Z,13.93
2023-01-23T13:15:38.805Z,14.30
2023-01-23T13:18:29.096Z,14.90
2023-01-23T13:21:23.140Z,16.77
2023-01-23T13:24:12.129Z,16.33
2023-01-23T13:26:41.351Z,16.38
2023-01-23T13:30:27.071Z,15.40
2023-01-23T13:33:08.095Z,14.20
2023-01-23T13:35:45.885Z,16.13
2023-01-23T13:38:24.042Z,16.25
2023-01-23T13:41:15.478Z,15.48
2023-01-23T13:44:27.160Z,16.67
2023-01-23T14:28:20.144Z,18.20
2023-01-23T14:30:59.116Z,17.05
2023-01-23T14:33:29.905Z,19.10
2023-01-23T14:35:59.502Z,18.08
2023-01-23T14:38:35.580Z,19.30
2023-01-23T14:41:09.131Z,19.45
2023-01-23T14:43:39.413Z,19.05
2023-01-23T14:46:19.681Z,22.13
2023-01-23T14:48:57.110Z,25.42
2023-01-23T14:51:29.376Z,25.45
2023-01-23T14:54:23.244Z,32.00
2023-01-23T14:56:57.258Z,24.35
2023-01-23T14:59:39.756Z,20.45
2023-01-23T15:02:32.516Z,19.15
2023-01-23T15:05:27.434Z,22.23
2023-01-23T15:08:05.173Z,24.77
2023-01-23T15:10:44.734Z,27.20
2023-01-23T15:13:51.875Z,27.52
2023-01-23T15:16:30.001Z,28.65
2023-01-23T15:19:21.836Z,27.65
2023-01-23T15:22:25.607Z,28.45
2023-01-23T15:24:55.240Z,31.50
2023-01-23T15:27:39.240Z,30.92
2023-01-23T15:30:50.374Z,29.70
2023-01-23T15:33:40.869Z,29.13
2023-01-23T15:36:26.771Z,31.35
2023-01-23T15:39:00.961Z,31.85
2023-01-23T15:42:18.631Z,32.97
2023-01-23T15:44:49.919Z,32.67
2023-01-23T15:47:19.107Z,32.22
2023-01-23T15:49:51.762Z,27.65
2023-01-23T15:52:29.522Z,29.63
2023-01-23T15:55:06.508Z,30.50
2023-01-23T15:57:37.797Z,29.85
2023-01-23T16:00:26.248Z,32.55
2023-01-23T16:05:38.323Z,28.38
2023-01-23T16:08:23.861Z,27.60
2023-01-23T16:10:53.383Z,27.30
2023-01-23T16:13:22.616Z,27.65
2023-01-23T16:15:53.278Z,27.73
2023-01-23T16:18:24.672Z,30.02
2023-01-23T16:20:56.289Z,29.55
2023-01-23T16:23:27.853Z,31.73
2023-01-23T16:25:58.867Z,30.20
2023-01-23T16:28:28.254Z,33.83
2023-01-23T16:30:57.646Z,31.65
2023-01-23T16:33:26.814Z,33.20
2023-01-23T16:35:56.504Z,31.05
2023-01-23T16:38:29.855Z,30.85
2023-01-23T16:41:02.403Z,32.10
2023-01-23T16:43:31.577Z,29.35
2023-01-23T16:46:00.737Z,30.00
2023-01-23T16:48:30.018Z,29.00
2023-01-23T16:51:27.409Z,31.90
2023-01-23T16:54:14.161Z,30.67
2023-01-23T16:56:51.855Z,29.17
2023-01-23T16:59:38.881Z,31.80
2023-01-23T17:02:28.477Z,30.83
2023-01-23T17:04:57.646Z,31.13
2023-01-23T17:07:26.787Z,32.50
2023-01-23T17:09:56.017Z,34.50
2023-01-23T17:12:31.339Z,32.88
2023-01-23T17:15:01.623Z,34.25
2023-01-23T17:17:37.432Z,30.95
2023-01-23T17:20:07.629Z,33.92
2023-01-23T17:22:42.945Z,35.72
2023-01-23T17:25:27.815Z,37.05
2023-01-23T17:28:11.868Z,40.80
2023-01-23T17:30:43.168Z,39.70
2023-01-23T17:33:28.430Z,41.03
2023-01-23T17:35:57.573Z,43.70
2023-01-23T17:38:33.107Z,45.00
2023-01-23T17:41:02.953Z,45.13
2023-01-23T17:43:32.079Z,53.10
2023-01-23T17:46:01.271Z,46.72
2023-01-23T17:48:34.163Z,44.30
2023-01-23T17:51:03.424Z,44.13
2023-01-23T17:53:32.591Z,47.30
2023-01-23T17:56:01.805Z,46.13
2023-01-23T17:58:30.961Z,42.45
2023-01-23T18:01:01.376Z,39.45
2023-01-23T18:03:30.646Z,40.03
2023-01-23T18:05:59.793Z,39.67
2023-01-23T18:08:28.965Z,47.17
2023-01-23T18:11:01.970Z,41.47
2023-01-23T18:13:47.970Z,42.65
2023-01-23T18:16:33.171Z,42.63
2023-01-23T18:19:19.753Z,41.88
2023-01-23T18:21:52.816Z,39.53
2023-01-23T18:24:28.439Z,37.30
2023-01-23T18:27:24.915Z,36.28
2023-01-23T18:30:16.107Z,35.85
2023-01-23T18:33:13.529Z,35.30
2023-01-23T18:36:53.189Z,35.25
2023-01-23T18:40:04.957Z,33.65
2023-01-23T18:43:11.752Z,34.38
2023-01-23T18:45:41.977Z,33.10
2023-01-23T18:48:25.055Z,41.22
2023-01-23T18:51:16.296Z,36.20
2023-01-23T18:54:29.166Z,32.15
2023-01-23T18:57:25.842Z,34.70
2023-01-23T19:00:20.958Z,33.20
2023-01-23T19:02:54.279Z,34.22
2023-01-23T19:05:35.518Z,35.83
2023-01-23T19:08:05.120Z,37.35
2023-01-23T19:10:48.900Z,36.03
2023-01-23T19:13:22.126Z,38.22
2023-01-23T19:15:54.737Z,37.85
2023-01-23T19:18:50.146Z,39.58
2023-01-23T19:21:26.045Z,39.40
2023-01-23T19:23:59.658Z,41.38
2023-01-23T19:26:34.055Z,42.72
2023-01-23T19:29:20.509Z,40.38
2023-01-23T19:32:05.259Z,40.63
2023-01-23T19:34:36.074Z,40.08
2023-01-23T19:37:05.955Z,40.17
2023-01-23T19:39:35.218Z,41.55
2023-01-23T19:42:05.559Z,40.28
2023-01-23T19:44:34.892Z,39.00
2023-01-23T19:47:06.376Z,39.33
2023-01-23T19:49:35.604Z,38.85
2023-01-23T19:52:04.938Z,37.05
2023-01-23T19:54:34.579Z,37.40
2023-01-23T19:57:03.732Z,37.90
2023-01-23T19:59:32.992Z,38.70
2023-01-23T20:02:02.351Z,39.08
2023-01-23T20:04:31.574Z,38.85
2023-01-23T20:07:00.723Z,37.70
2023-01-23T20:09:30.318Z,37.97
2023-01-23T20:11:59.482Z,35.90
2023-01-23T20:14:30.466Z,35.53
2023-01-23T20:17:00.486Z,35.10
2023-01-23T20:19:29.751Z,33.25
2023-01-23T20:21:58.891Z,35.63
2023-01-23T20:24:28.161Z,33.80
2023-01-23T20:26:57.359Z,34.35
2023-01-23T20:29:26.629Z,34.53
2023-01-23T20:31:56.251Z,34.30
2023-01-23T20:34:25.473Z,35.05
2023-01-23T20:36:54.655Z,35.30
2023-01-23T20:39:23.913Z,34.70
2023-01-23T20:41:53.953Z,34.78
2023-01-23T20:44:23.212Z,36.58
2023-01-23T20:46:53.353Z,33.75
2023-01-23T20:49:24.367Z,33.58
2023-01-23T20:51:53.513Z,35.10
2023-01-23T20:54:22.738Z,32.80
2023-01-23T20:56:52.010Z,31.35
2023-01-23T20:59:24.816Z,31.90
2023-01-23T21:02:12.367Z,30.83
2023-01-23T21:04:41.568Z,29.77
2023-01-23T21:07:10.717Z,29.20
2023-01-23T21:09:39.922Z,29.58
2023-01-23T21:12:09.936Z,28.00
2023-01-23T21:14:39.348Z,27.95
2023-01-23T21:17:10.908Z,26.88
2023-01-23T21:19:41.178Z,27.65
2023-01-23T21:22:10.592Z,25.55
2023-01-23T21:24:39.890Z,25.38
2023-01-23T21:27:09.580Z,23.77
2023-01-23T21:29:40.221Z,24.67
2023-01-23T21:32:09.477Z,23.30
2023-01-23T21:34:39.491Z,23.13
2023-01-23T21:37:11.756Z,22.95
2023-01-23T21:39:41.756Z,23.80
2023-01-23T21:42:10.947Z,23.65
2023-01-23T21:44:40.139Z,24.92
2023-01-23T21:47:09.391Z,24.73
2023-01-23T21:49:38.625Z,25.55
2023-01-23T21:52:07.904Z,23.90
2023-01-23T21:54:37.084Z,23.65
2023-01-23T21:57:06.448Z,23.67
2023-01-23T21:59:35.597Z,23.27
2023-01-23T22:02:04.783Z,25.58
2023-01-23T22:04:34.110Z,24.40
2023-01-23T22:07:03.384Z,24.77
2023-01-23T22:09:32.647Z,27.73
2023-01-23T22:12:01.807Z,27.38
2023-01-23T22:14:31.562Z,30.35
2023-01-23T22:17:01.367Z,33.78
2023-01-23T22:19:30.503Z,41.15
2023-01-23T22:21:59.675Z,42.55
2023-01-23T22:24:28.778Z,41.67
2023-01-23T22:26:57.869Z,35.42
2023-01-23T22:29:27.046Z,35.47
2023-01-23T22:31:56.189Z,33.30
2023-01-23T22:34:25.439Z,33.53
2023-01-23T22:36:54.627Z,35.30
2023-01-23T22:39:23.839Z,34.75
2023-01-23T22:41:53.253Z,35.05
2023-01-23T22:44:22.345Z,34.22
2023-01-23T22:46:54.339Z,34.20
2023-01-23T22:49:23.768Z,33.65
2023-01-23T22:51:52.886Z,33.22
2023-01-23T22:54:22.120Z,32.65
2023-01-23T22:56:51.264Z,31.40
2023-01-23T22:59:20.361Z,33.67
2023-01-23T23:01:49.482Z,32.58
2023-01-23T23:04:18.593Z,33.42
2023-01-23T23:06:47.655Z,33.55
2023-01-23T23:09:16.791Z,36.08
2023-01-23T23:11:48.380Z,35.97
2023-01-23T23:14:17.524Z,39.45
2023-01-23T23:16:47.119Z,37.42
2023-01-23T23:19:16.356Z,34.75
2023-01-23T23:21:45.545Z,35.70
2023-01-23T23:24:15.560Z,36.97
2023-01-23T23:26:44.792Z,39.45
2023-01-23T23:29:14.739Z,38.70
2023-01-23T23:31:44.297Z,38.03
2023-01-23T23:34:13.604Z,35.30
2023-01-23T23:36:42.807Z,34.65
2023-01-23T23:39:12.395Z,35.05
2023-01-23T23:41:41.758Z,35.90
2023-01-23T23:44:11.214Z,36.55
2023-01-23T23:46:40.512Z,35.30
2023-01-23T23:49:10.009Z,35.92
2023-01-23T23:51:39.196Z,38.22
2023-01-23T23:54:08.349Z,37.35
2023-01-23T23:56:37.635Z,35.33
2023-01-23T23:59:06.880Z,37.55
